Weather at Lac Gagnon Seaplane Base [CLOSED]

Public forecast

Using degrees Celsius for public forecast. Weather courtesy of forecast.io.

Closest aviation weather report (METAR) to Lac Gagnon Seaplane Base

Closest report is Ottawa / Gatineau Airport, 40.4 nm (74.8 km) SSW.

2024/05/20 00:00 (retrieved 54 minutes ago)

CYND 200000Z 08004KT 15SM FEW060 FEW250 23/14 A2990 RMK SC1CI1 SC TR SLP128 DENSITY ALT 1300FT

Closest aviation forecast (TAF) to Lac Gagnon Seaplane Base

Forecast is more than 6 hours old.

Closest forecast is Ottawa / Gatineau Airport, 40.4 nm (74.8 km) SSW.

2024/05/19 18:00 (retrieved 7 hours ago)

TAF CYND 191740Z 1918/2001 14005KT P6SM FEW040 BECMG 1918/1920 17005KT SCT050 RMK NXT FCST BY 201300Z